sensor_id;sensor_type;location;lat;lon;timestamp;temperature;humidity
26964;DHT22;14521;48.148;-1.656;2023-04-05T00:02:13;19.10;77.20
26964;DHT22;14521;48.148;-1.656;2023-04-05T00:05:39;19.00;77.10
26964;DHT22;14521;48.148;-1.656;2023-04-05T00:09:02;19.10;77.00
26964;DHT22;14521;48.148;-1.656;2023-04-05T00:12:25;19.10;76.80
26964;DHT22;14521;48.148;-1.656;2023-04-05T00:15:48;19.10;76.80
26964;DHT22;14521;48.148;-1.656;2023-04-05T00:19:10;19.10;76.80
26964;DHT22;14521;48.148;-1.656;2023-04-05T00:22:34;19.10;76.80
26964;DHT22;14521;48.148;-1.656;2023-04-05T00:25:57;19.10;76.70
26964;DHT22;14521;48.148;-1.656;2023-04-05T00:29:20;19.00;76.70
26964;DHT22;14521;48.148;-1.656;2023-04-05T00:32:42;19.00;76.70
26964;DHT22;14521;48.148;-1.656;2023-04-05T00:36:23;19.00;76.60
26964;DHT22;14521;48.148;-1.656;2023-04-05T00:39:45;19.00;76.70
26964;DHT22;14521;48.148;-1.656;2023-04-05T00:43:07;19.00;76.60
26964;DHT22;14521;48.148;-1.656;2023-04-05T00:46:33;19.00;76.60
26964;DHT22;14521;48.148;-1.656;2023-04-05T00:49:55;19.00;76.90
26964;DHT22;14521;48.148;-1.656;2023-04-05T00:53:19;19.00;76.60
26964;DHT22;14521;48.148;-1.656;2023-04-05T00:56:41;19.00;76.60
26964;DHT22;14521;48.148;-1.656;2023-04-05T01:00:05;19.00;76.60
26964;DHT22;14521;48.148;-1.656;2023-04-05T01:03:31;19.00;76.60
26964;DHT22;14521;48.148;-1.656;2023-04-05T01:06:58;19.00;76.50
26964;DHT22;14521;48.148;-1.656;2023-04-05T01:10:22;18.90;76.40
26964;DHT22;14521;48.148;-1.656;2023-04-05T01:13:49;19.00;76.40
26964;DHT22;14521;48.148;-1.656;2023-04-05T01:17:12;18.90;76.40
26964;DHT22;14521;48.148;-1.656;2023-04-05T01:20:37;19.00;76.30
26964;DHT22;14521;48.148;-1.656;2023-04-05T01:32:05;18.90;76.10
26964;DHT22;14521;48.148;-1.656;2023-04-05T01:38:53;18.80;76.00
26964;DHT22;14521;48.148;-1.656;2023-04-05T01:42:22;18.80;76.00
26964;DHT22;14521;48.148;-1.656;2023-04-05T01:45:48;18.80;75.80
26964;DHT22;14521;48.148;-1.656;2023-04-05T01:49:10;18.80;75.80
26964;DHT22;14521;48.148;-1.656;2023-04-05T01:52:33;18.80;75.80
26964;DHT22;14521;48.148;-1.656;2023-04-05T01:55:59;18.80;75.80
26964;DHT22;14521;48.148;-1.656;2023-04-05T01:59:23;18.80;75.80
26964;DHT22;14521;48.148;-1.656;2023-04-05T02:02:45;18.80;75.80
26964;DHT22;14521;48.148;-1.656;2023-04-05T02:06:09;18.80;75.80
26964;DHT22;14521;48.148;-1.656;2023-04-05T02:09:32;18.80;75.70
26964;DHT22;14521;48.148;-1.656;2023-04-05T02:12:54;18.80;75.70
26964;DHT22;14521;48.148;-1.656;2023-04-05T02:16:17;18.80;75.70
26964;DHT22;14521;48.148;-1.656;2023-04-05T02:19:39;18.80;75.60
26964;DHT22;14521;48.148;-1.656;2023-04-05T02:23:02;18.80;75.60
26964;DHT22;14521;48.148;-1.656;2023-04-05T02:26:24;18.70;75.50
26964;DHT22;14521;48.148;-1.656;2023-04-05T02:29:47;18.70;75.50
26964;DHT22;14521;48.148;-1.656;2023-04-05T02:33:09;18.80;75.60
26964;DHT22;14521;48.148;-1.656;2023-04-05T02:36:31;18.70;75.50
26964;DHT22;14521;48.148;-1.656;2023-04-05T02:39:56;18.70;75.50
26964;DHT22;14521;48.148;-1.656;2023-04-05T02:43:19;18.70;75.50
26964;DHT22;14521;48.148;-1.656;2023-04-05T02:46:43;18.70;75.40
26964;DHT22;14521;48.148;-1.656;2023-04-05T02:50:06;18.70;75.30
26964;DHT22;14521;48.148;-1.656;2023-04-05T02:53:35;18.70;75.30
26964;DHT22;14521;48.148;-1.656;2023-04-05T02:57:01;18.70;75.20
26964;DHT22;14521;48.148;-1.656;2023-04-05T03:00:33;18.70;75.20
26964;DHT22;14521;48.148;-1.656;2023-04-05T03:03:57;18.70;75.20
26964;DHT22;14521;48.148;-1.656;2023-04-05T03:07:19;18.60;75.10
26964;DHT22;14521;48.148;-1.656;2023-04-05T03:10:46;18.60;75.00
26964;DHT22;14521;48.148;-1.656;2023-04-05T03:14:11;18.60;75.00
26964;DHT22;14521;48.148;-1.656;2023-04-05T03:17:38;18.60;74.90
26964;DHT22;14521;48.148;-1.656;2023-04-05T03:21:00;18.60;74.80
26964;DHT22;14521;48.148;-1.656;2023-04-05T03:24:23;18.60;74.80
26964;DHT22;14521;48.148;-1.656;2023-04-05T03:27:48;18.60;74.80
26964;DHT22;14521;48.148;-1.656;2023-04-05T03:31:12;18.60;74.80
26964;DHT22;14521;48.148;-1.656;2023-04-05T03:34:35;18.60;74.80
26964;DHT22;14521;48.148;-1.656;2023-04-05T03:37:59;18.50;74.70
26964;DHT22;14521;48.148;-1.656;2023-04-05T03:41:22;18.60;74.80
26964;DHT22;14521;48.148;-1.656;2023-04-05T03:44:44;18.50;74.70
26964;DHT22;14521;48.148;-1.656;2023-04-05T03:48:08;18.60;74.80
26964;DHT22;14521;48.148;-1.656;2023-04-05T03:51:31;18.60;74.70
26964;DHT22;14521;48.148;-1.656;2023-04-05T03:54:54;18.50;74.70
26964;DHT22;14521;48.148;-1.656;2023-04-05T03:58:18;18.50;74.70
26964;DHT22;14521;48.148;-1.656;2023-04-05T04:01:41;18.50;74.60
26964;DHT22;14521;48.148;-1.656;2023-04-05T04:05:03;18.50;74.60
26964;DHT22;14521;48.148;-1.656;2023-04-05T04:08:28;18.50;74.60
26964;DHT22;14521;48.148;-1.656;2023-04-05T04:11:53;18.50;74.50
26964;DHT22;14521;48.148;-1.656;2023-04-05T04:15:16;18.50;74.40
26964;DHT22;14521;48.148;-1.656;2023-04-05T04:18:54;18.50;74.40
26964;DHT22;14521;48.148;-1.656;2023-04-05T04:22:31;18.50;74.20
26964;DHT22;14521;48.148;-1.656;2023-04-05T04:26:22;18.60;74.40
26964;DHT22;14521;48.148;-1.656;2023-04-05T04:30:07;18.70;74.30
26964;DHT22;14521;48.148;-1.656;2023-04-05T04:33:51;18.80;74.10
26964;DHT22;14521;48.148;-1.656;2023-04-05T04:37:39;18.80;74.00
26964;DHT22;14521;48.148;-1.656;2023-04-05T04:41:25;18.80;73.80
26964;DHT22;14521;48.148;-1.656;2023-04-05T04:45:06;18.90;73.80
26964;DHT22;14521;48.148;-1.656;2023-04-05T04:48:41;18.90;73.70
26964;DHT22;14521;48.148;-1.656;2023-04-05T04:52:18;18.90;73.80
26964;DHT22;14521;48.148;-1.656;2023-04-05T04:55:40;19.00;73.80
26964;DHT22;14521;48.148;-1.656;2023-04-05T04:59:03;19.00;73.70
26964;DHT22;14521;48.148;-1.656;2023-04-05T05:02:26;19.00;73.70
26964;DHT22;14521;48.148;-1.656;2023-04-05T05:05:52;19.00;73.60
26964;DHT22;14521;48.148;-1.656;2023-04-05T05:09:18;19.10;73.60
26964;DHT22;14521;48.148;-1.656;2023-04-05T05:12:47;19.10;73.70
26964;DHT22;14521;48.148;-1.656;2023-04-05T05:16:10;19.10;73.50
26964;DHT22;14521;48.148;-1.656;2023-04-05T05:19:32;19.10;73.80
26964;DHT22;14521;48.148;-1.656;2023-04-05T05:22:55;19.10;73.90
26964;DHT22;14521;48.148;-1.656;2023-04-05T05:26:17;19.20;73.20
26964;DHT22;14521;48.148;-1.656;2023-04-05T05:29:39;19.20;73.30
26964;DHT22;14521;48.148;-1.656;2023-04-05T05:33:01;19.30;72.40
26964;DHT22;14521;48.148;-1.656;2023-04-05T05:36:24;19.30;72.60
26964;DHT22;14521;48.148;-1.656;2023-04-05T05:39:46;19.30;73.70
26964;DHT22;14521;48.148;-1.656;2023-04-05T05:43:09;19.40;74.60
26964;DHT22;14521;48.148;-1.656;2023-04-05T05:46:32;19.40;73.90
26964;DHT22;14521;48.148;-1.656;2023-04-05T05:49:54;19.40;73.70
26964;DHT22;14521;48.148;-1.656;2023-04-05T05:53:17;19.30;73.70
26964;DHT22;14521;48.148;-1.656;2023-04-05T05:56:39;19.40;75.00
26964;DHT22;14521;48.148;-1.656;2023-04-05T06:00:02;19.40;73.90
26964;DHT22;14521;48.148;-1.656;2023-04-05T06:03:32;19.40;73.60
26964;DHT22;14521;48.148;-1.656;2023-04-05T06:06:56;19.50;74.10
26964;DHT22;14521;48.148;-1.656;2023-04-05T06:10:18;19.60;73.70
26964;DHT22;14521;48.148;-1.656;2023-04-05T06:13:41;19.60;75.80
26964;DHT22;14521;48.148;-1.656;2023-04-05T06:17:03;19.60;74.30
26964;DHT22;14521;48.148;-1.656;2023-04-05T06:20:25;19.60;74.30
26964;DHT22;14521;48.148;-1.656;2023-04-05T06:23:48;19.60;74.20
26964;DHT22;14521;48.148;-1.656;2023-04-05T06:27:10;19.50;75.30
26964;DHT22;14521;48.148;-1.656;2023-04-05T06:30:35;19.50;77.00
26964;DHT22;14521;48.148;-1.656;2023-04-05T06:33:58;19.50;76.10
26964;DHT22;14521;48.148;-1.656;2023-04-05T06:37:20;19.40;75.00
26964;DHT22;14521;48.148;-1.656;2023-04-05T06:40:42;19.40;75.30
26964;DHT22;14521;48.148;-1.656;2023-04-05T06:44:05;19.40;75.80
26964;DHT22;14521;48.148;-1.656;2023-04-05T06:47:27;19.30;72.60
26964;DHT22;14521;48.148;-1.656;2023-04-05T06:51:00;19.20;76.00
26964;DHT22;14521;48.148;-1.656;2023-04-05T06:54:23;19.30;77.50
26964;DHT22;14521;48.148;-1.656;2023-04-05T06:57:45;19.40;76.60
26964;DHT22;14521;48.148;-1.656;2023-04-05T07:01:08;19.50;76.70
26964;DHT22;14521;48.148;-1.656;2023-04-05T07:04:30;19.50;76.40
26964;DHT22;14521;48.148;-1.656;2023-04-05T07:07:58;19.40;75.90
26964;DHT22;14521;48.148;-1.656;2023-04-05T07:11:20;19.40;76.10
26964;DHT22;14521;48.148;-1.656;2023-04-05T07:14:42;19.40;76.30
26964;DHT22;14521;48.148;-1.656;2023-04-05T07:18:05;19.40;76.70
26964;DHT22;14521;48.148;-1.656;2023-04-05T07:21:27;19.30;76.50
26964;DHT22;14521;48.148;-1.656;2023-04-05T07:24:51;19.40;77.40
26964;DHT22;14521;48.148;-1.656;2023-04-05T07:28:14;19.40;77.30
26964;DHT22;14521;48.148;-1.656;2023-04-05T07:31:38;19.40;77.10
26964;DHT22;14521;48.148;-1.656;2023-04-05T07:35:00;19.30;77.00
26964;DHT22;14521;48.148;-1.656;2023-04-05T07:38:23;19.30;76.70
26964;DHT22;14521;48.148;-1.656;2023-04-05T07:41:45;19.30;76.70
26964;DHT22;14521;48.148;-1.656;2023-04-05T07:45:08;19.30;76.80
26964;DHT22;14521;48.148;-1.656;2023-04-05T07:48:30;19.30;76.80
26964;DHT22;14521;48.148;-1.656;2023-04-05T07:51:54;19.30;76.50
26964;DHT22;14521;48.148;-1.656;2023-04-05T07:55:17;19.30;77.00
26964;DHT22;14521;48.148;-1.656;2023-04-05T07:58:39;19.30;76.50
26964;DHT22;14521;48.148;-1.656;2023-04-05T08:02:02;19.30;76.80
26964;DHT22;14521;48.148;-1.656;2023-04-05T08:05:35;19.30;76.80
26964;DHT22;14521;48.148;-1.656;2023-04-05T08:08:57;19.30;76.80
26964;DHT22;14521;48.148;-1.656;2023-04-05T08:12:20;19.30;76.50
26964;DHT22;14521;48.148;-1.656;2023-04-05T08:15:42;19.30;76.50
26964;DHT22;14521;48.148;-1.656;2023-04-05T08:19:04;19.30;76.00
26964;DHT22;14521;48.148;-1.656;2023-04-05T08:22:27;19.30;75.90
26964;DHT22;14521;48.148;-1.656;2023-04-05T08:25:50;19.30;75.70
26964;DHT22;14521;48.148;-1.656;2023-04-05T08:29:13;19.40;75.70
26964;DHT22;14521;48.148;-1.656;2023-04-05T08:32:35;19.40;75.70
26964;DHT22;14521;48.148;-1.656;2023-04-05T08:36:06;19.40;75.60
26964;DHT22;14521;48.148;-1.656;2023-04-05T08:39:29;19.40;76.60
26964;DHT22;14521;48.148;-1.656;2023-04-05T08:42:56;19.40;76.40
26964;DHT22;14521;48.148;-1.656;2023-04-05T08:46:22;19.40;76.60
26964;DHT22;14521;48.148;-1.656;2023-04-05T08:49:45;19.40;76.60
26964;DHT22;14521;48.148;-1.656;2023-04-05T08:53:08;19.40;77.00
26964;DHT22;14521;48.148;-1.656;2023-04-05T08:56:34;19.40;76.80
26964;DHT22;14521;48.148;-1.656;2023-04-05T08:59:58;19.40;76.80
26964;DHT22;14521;48.148;-1.656;2023-04-05T09:03:25;19.30;77.10
26964;DHT22;14521;48.148;-1.656;2023-04-05T09:06:50;19.40;77.00
26964;DHT22;14521;48.148;-1.656;2023-04-05T09:10:13;19.30;75.70
26964;DHT22;14521;48.148;-1.656;2023-04-05T09:13:36;19.40;76.90
26964;DHT22;14521;48.148;-1.656;2023-04-05T09:17:01;19.40;76.00
26964;DHT22;14521;48.148;-1.656;2023-04-05T09:20:24;19.40;76.20
26964;DHT22;14521;48.148;-1.656;2023-04-05T09:23:51;19.30;75.70
26964;DHT22;14521;48.148;-1.656;2023-04-05T09:27:18;19.40;75.60
26964;DHT22;14521;48.148;-1.656;2023-04-05T09:30:49;19.30;76.00
26964;DHT22;14521;48.148;-1.656;2023-04-05T09:34:19;19.30;75.60
26964;DHT22;14521;48.148;-1.656;2023-04-05T09:37:56;19.40;76.50
26964;DHT22;14521;48.148;-1.656;2023-04-05T09:41:20;19.40;77.00
26964;DHT22;14521;48.148;-1.656;2023-04-05T09:48:14;19.50;76.60
26964;DHT22;14521;48.148;-1.656;2023-04-05T09:51:37;19.50;76.90
26964;DHT22;14521;48.148;-1.656;2023-04-05T09:55:03;19.50;77.20
26964;DHT22;14521;48.148;-1.656;2023-04-05T09:58:31;19.50;77.20
26964;DHT22;14521;48.148;-1.656;2023-04-05T10:01:53;19.50;76.80
26964;DHT22;14521;48.148;-1.656;2023-04-05T10:05:16;19.50;75.70
26964;DHT22;14521;48.148;-1.656;2023-04-05T10:08:38;19.60;75.80
26964;DHT22;14521;48.148;-1.656;2023-04-05T10:12:01;19.60;76.60
26964;DHT22;14521;48.148;-1.656;2023-04-05T10:15:25;19.60;76.60
26964;DHT22;14521;48.148;-1.656;2023-04-05T10:18:52;19.60;76.70
26964;DHT22;14521;48.148;-1.656;2023-04-05T10:22:20;19.60;76.60
26964;DHT22;14521;48.148;-1.656;2023-04-05T10:25:49;19.60;76.80
26964;DHT22;14521;48.148;-1.656;2023-04-05T10:29:24;19.60;76.70
26964;DHT22;14521;48.148;-1.656;2023-04-05T10:36:46;19.50;76.40
26964;DHT22;14521;48.148;-1.656;2023-04-05T10:40:11;19.60;76.40
26964;DHT22;14521;48.148;-1.656;2023-04-05T10:43:34;19.60;76.10
26964;DHT22;14521;48.148;-1.656;2023-04-05T10:46:59;19.60;76.30
26964;DHT22;14521;48.148;-1.656;2023-04-05T10:50:23;19.60;76.20
26964;DHT22;14521;48.148;-1.656;2023-04-05T10:53:46;19.60;76.60
26964;DHT22;14521;48.148;-1.656;2023-04-05T10:57:11;19.60;76.50
26964;DHT22;14521;48.148;-1.656;2023-04-05T11:00:34;19.60;76.10
26964;DHT22;14521;48.148;-1.656;2023-04-05T11:04:13;19.60;76.00
26964;DHT22;14521;48.148;-1.656;2023-04-05T11:07:43;19.60;75.60
26964;DHT22;14521;48.148;-1.656;2023-04-05T11:11:06;19.60;75.40
26964;DHT22;14521;48.148;-1.656;2023-04-05T11:14:36;19.60;75.40
26964;DHT22;14521;48.148;-1.656;2023-04-05T11:21:28;19.60;75.20
26964;DHT22;14521;48.148;-1.656;2023-04-05T11:24:53;19.60;75.20
26964;DHT22;14521;48.148;-1.656;2023-04-05T11:28:34;19.60;75.30
26964;DHT22;14521;48.148;-1.656;2023-04-05T11:32:11;19.60;75.30
26964;DHT22;14521;48.148;-1.656;2023-04-05T11:35:33;19.60;75.30
26964;DHT22;14521;48.148;-1.656;2023-04-05T11:42:45;19.60;74.90
26964;DHT22;14521;48.148;-1.656;2023-04-05T11:46:07;19.60;74.80
26964;DHT22;14521;48.148;-1.656;2023-04-05T11:49:29;19.60;74.80
26964;DHT22;14521;48.148;-1.656;2023-04-05T11:53:18;19.60;75.10
26964;DHT22;14521;48.148;-1.656;2023-04-05T11:56:40;19.60;75.10
26964;DHT22;14521;48.148;-1.656;2023-04-05T12:00:03;19.60;75.40
26964;DHT22;14521;48.148;-1.656;2023-04-05T12:03:33;19.60;75.20
26964;DHT22;14521;48.148;-1.656;2023-04-05T12:07:28;19.60;75.40
26964;DHT22;14521;48.148;-1.656;2023-04-05T12:10:57;19.60;75.10
26964;DHT22;14521;48.148;-1.656;2023-04-05T12:14:22;19.60;75.00
26964;DHT22;14521;48.148;-1.656;2023-04-05T12:17:48;19.60;74.80
26964;DHT22;14521;48.148;-1.656;2023-04-05T12:21:11;19.60;74.80
26964;DHT22;14521;48.148;-1.656;2023-04-05T12:24:34;19.60;75.20
26964;DHT22;14521;48.148;-1.656;2023-04-05T12:28:03;19.60;75.00
26964;DHT22;14521;48.148;-1.656;2023-04-05T12:31:43;19.60;75.00
26964;DHT22;14521;48.148;-1.656;2023-04-05T12:35:10;19.60;74.80
26964;DHT22;14521;48.148;-1.656;2023-04-05T12:38:36;19.60;74.80
26964;DHT22;14521;48.148;-1.656;2023-04-05T12:41:58;19.60;74.90
26964;DHT22;14521;48.148;-1.656;2023-04-05T12:45:22;19.70;75.00
26964;DHT22;14521;48.148;-1.656;2023-04-05T12:48:49;19.70;75.00
26964;DHT22;14521;48.148;-1.656;2023-04-05T12:52:18;19.60;75.00
26964;DHT22;14521;48.148;-1.656;2023-04-05T12:55:44;19.60;75.70
26964;DHT22;14521;48.148;-1.656;2023-04-05T12:59:08;19.60;74.80
26964;DHT22;14521;48.148;-1.656;2023-04-05T13:02:31;19.60;75.30
26964;DHT22;14521;48.148;-1.656;2023-04-05T13:05:53;19.60;74.90
26964;DHT22;14521;48.148;-1.656;2023-04-05T13:09:16;19.60;74.90
26964;DHT22;14521;48.148;-1.656;2023-04-05T13:12:38;19.60;75.00
26964;DHT22;14521;48.148;-1.656;2023-04-05T13:16:01;19.60;75.10
26964;DHT22;14521;48.148;-1.656;2023-04-05T13:19:23;19.60;75.10
26964;DHT22;14521;48.148;-1.656;2023-04-05T13:22:46;19.60;75.20
26964;DHT22;14521;48.148;-1.656;2023-04-05T13:26:08;19.60;75.30
26964;DHT22;14521;48.148;-1.656;2023-04-05T13:29:31;19.60;75.10
26964;DHT22;14521;48.148;-1.656;2023-04-05T13:32:53;19.60;75.20
26964;DHT22;14521;48.148;-1.656;2023-04-05T13:36:15;19.70;75.30
26964;DHT22;14521;48.148;-1.656;2023-04-05T13:39:38;19.60;75.10
26964;DHT22;14521;48.148;-1.656;2023-04-05T13:43:00;19.60;75.10
26964;DHT22;14521;48.148;-1.656;2023-04-05T13:46:22;19.60;75.00
26964;DHT22;14521;48.148;-1.656;2023-04-05T13:49:45;19.60;74.80
26964;DHT22;14521;48.148;-1.656;2023-04-05T13:53:07;19.60;75.60
26964;DHT22;14521;48.148;-1.656;2023-04-05T13:56:29;19.60;74.60
26964;DHT22;14521;48.148;-1.656;2023-04-05T13:59:52;19.60;74.70
26964;DHT22;14521;48.148;-1.656;2023-04-05T14:03:14;19.60;74.60
26964;DHT22;14521;48.148;-1.656;2023-04-05T14:06:37;19.60;74.60
26964;DHT22;14521;48.148;-1.656;2023-04-05T14:09:59;19.60;74.40
26964;DHT22;14521;48.148;-1.656;2023-04-05T14:13:21;19.60;74.40
26964;DHT22;14521;48.148;-1.656;2023-04-05T14:16:44;19.60;74.60
26964;DHT22;14521;48.148;-1.656;2023-04-05T14:20:07;19.50;74.30
26964;DHT22;14521;48.148;-1.656;2023-04-05T14:23:29;19.60;74.60
26964;DHT22;14521;48.148;-1.656;2023-04-05T14:26:51;19.50;74.60
26964;DHT22;14521;48.148;-1.656;2023-04-05T14:30:14;19.50;74.60
26964;DHT22;14521;48.148;-1.656;2023-04-05T14:33:36;19.50;74.60
26964;DHT22;14521;48.148;-1.656;2023-04-05T14:36:59;19.50;74.70
26964;DHT22;14521;48.148;-1.656;2023-04-05T14:40:21;19.50;74.70
26964;DHT22;14521;48.148;-1.656;2023-04-05T14:43:44;19.50;74.70
26964;DHT22;14521;48.148;-1.656;2023-04-05T14:47:07;19.50;74.70
26964;DHT22;14521;48.148;-1.656;2023-04-05T14:50:29;19.50;74.50
26964;DHT22;14521;48.148;-1.656;2023-04-05T14:53:53;19.50;74.40
26964;DHT22;14521;48.148;-1.656;2023-04-05T14:57:15;19.50;74.40
26964;DHT22;14521;48.148;-1.656;2023-04-05T15:00:38;19.50;74.30
26964;DHT22;14521;48.148;-1.656;2023-04-05T15:04:00;19.50;74.10
26964;DHT22;14521;48.148;-1.656;2023-04-05T15:07:23;19.60;74.50
26964;DHT22;14521;48.148;-1.656;2023-04-05T15:10:45;19.50;74.30
26964;DHT22;14521;48.148;-1.656;2023-04-05T15:14:08;19.50;74.50
26964;DHT22;14521;48.148;-1.656;2023-04-05T15:17:39;19.50;74.30
26964;DHT22;14521;48.148;-1.656;2023-04-05T15:21:01;19.50;74.20
26964;DHT22;14521;48.148;-1.656;2023-04-05T15:24:24;19.50;74.10
26964;DHT22;14521;48.148;-1.656;2023-04-05T15:27:46;19.50;74.30
26964;DHT22;14521;48.148;-1.656;2023-04-05T15:31:09;19.50;74.40
26964;DHT22;14521;48.148;-1.656;2023-04-05T15:34:31;19.50;74.40
26964;DHT22;14521;48.148;-1.656;2023-04-05T15:37:53;19.50;74.40
26964;DHT22;14521;48.148;-1.656;2023-04-05T15:41:16;19.50;74.30
26964;DHT22;14521;48.148;-1.656;2023-04-05T15:44:38;19.50;74.30
26964;DHT22;14521;48.148;-1.656;2023-04-05T15:48:01;19.50;74.50
26964;DHT22;14521;48.148;-1.656;2023-04-05T15:51:24;19.50;74.30
26964;DHT22;14521;48.148;-1.656;2023-04-05T15:54:46;19.50;74.40
26964;DHT22;14521;48.148;-1.656;2023-04-05T15:58:08;19.50;74.20
26964;DHT22;14521;48.148;-1.656;2023-04-05T16:01:31;19.50;74.30
26964;DHT22;14521;48.148;-1.656;2023-04-05T16:04:53;19.50;74.30
26964;DHT22;14521;48.148;-1.656;2023-04-05T16:08:15;19.50;74.30
26964;DHT22;14521;48.148;-1.656;2023-04-05T16:11:38;19.40;74.20
26964;DHT22;14521;48.148;-1.656;2023-04-05T16:15:00;19.40;74.20
26964;DHT22;14521;48.148;-1.656;2023-04-05T16:18:22;19.50;74.40
26964;DHT22;14521;48.148;-1.656;2023-04-05T16:21:46;19.50;74.20
26964;DHT22;14521;48.148;-1.656;2023-04-05T16:25:09;19.40;74.00
26964;DHT22;14521;48.148;-1.656;2023-04-05T16:28:31;19.40;73.90
26964;DHT22;14521;48.148;-1.656;2023-04-05T16:31:56;19.40;74.10
26964;DHT22;14521;48.148;-1.656;2023-04-05T16:35:19;19.40;74.10
26964;DHT22;14521;48.148;-1.656;2023-04-05T16:38:41;19.40;74.00
26964;DHT22;14521;48.148;-1.656;2023-04-05T16:42:06;19.40;74.00
26964;DHT22;14521;48.148;-1.656;2023-04-05T16:45:28;19.40;74.10
26964;DHT22;14521;48.148;-1.656;2023-04-05T16:48:53;19.40;74.10
26964;DHT22;14521;48.148;-1.656;2023-04-05T16:52:15;19.40;74.20
26964;DHT22;14521;48.148;-1.656;2023-04-05T16:55:37;19.40;74.20
26964;DHT22;14521;48.148;-1.656;2023-04-05T16:58:59;19.40;74.30
26964;DHT22;14521;48.148;-1.656;2023-04-05T17:02:25;19.40;75.00
26964;DHT22;14521;48.148;-1.656;2023-04-05T17:05:48;19.40;74.70
26964;DHT22;14521;48.148;-1.656;2023-04-05T17:09:10;19.40;75.20
26964;DHT22;14521;48.148;-1.656;2023-04-05T17:12:33;19.40;74.90
26964;DHT22;14521;48.148;-1.656;2023-04-05T17:15:56;19.30;74.10
26964;DHT22;14521;48.148;-1.656;2023-04-05T17:19:18;19.40;74.70
26964;DHT22;14521;48.148;-1.656;2023-04-05T17:22:40;19.40;75.00
26964;DHT22;14521;48.148;-1.656;2023-04-05T17:26:03;19.40;75.70
26964;DHT22;14521;48.148;-1.656;2023-04-05T17:29:25;19.50;75.60
26964;DHT22;14521;48.148;-1.656;2023-04-05T17:32:47;19.50;76.40
26964;DHT22;14521;48.148;-1.656;2023-04-05T17:36:10;19.50;75.30
26964;DHT22;14521;48.148;-1.656;2023-04-05T17:39:33;19.50;75.30
26964;DHT22;14521;48.148;-1.656;2023-04-05T17:42:55;19.50;74.80
26964;DHT22;14521;48.148;-1.656;2023-04-05T17:46:18;19.50;74.50
26964;DHT22;14521;48.148;-1.656;2023-04-05T17:49:55;19.50;75.00
26964;DHT22;14521;48.148;-1.656;2023-04-05T17:53:17;19.50;74.80
26964;DHT22;14521;48.148;-1.656;2023-04-05T17:56:40;19.60;75.10
26964;DHT22;14521;48.148;-1.656;2023-04-05T18:00:03;19.60;74.90
26964;DHT22;14521;48.148;-1.656;2023-04-05T18:03:26;19.40;73.60
26964;DHT22;14521;48.148;-1.656;2023-04-05T18:06:51;19.40;74.00
26964;DHT22;14521;48.148;-1.656;2023-04-05T18:10:13;19.10;70.10
26964;DHT22;14521;48.148;-1.656;2023-04-05T18:13:36;18.70;71.00
26964;DHT22;14521;48.148;-1.656;2023-04-05T18:16:58;18.50;72.50
26964;DHT22;14521;48.148;-1.656;2023-04-05T18:20:21;18.50;73.10
26964;DHT22;14521;48.148;-1.656;2023-04-05T18:23:43;18.50;73.90
26964;DHT22;14521;48.148;-1.656;2023-04-05T18:27:06;18.40;74.20
26964;DHT22;14521;48.148;-1.656;2023-04-05T18:30:28;18.40;74.40
26964;DHT22;14521;48.148;-1.656;2023-04-05T18:33:50;18.40;74.90
26964;DHT22;14521;48.148;-1.656;2023-04-05T18:37:13;18.40;75.30
26964;DHT22;14521;48.148;-1.656;2023-04-05T18:40:35;18.60;75.00
26964;DHT22;14521;48.148;-1.656;2023-04-05T18:43:57;18.90;76.50
26964;DHT22;14521;48.148;-1.656;2023-04-05T18:47:20;19.20;76.70
26964;DHT22;14521;48.148;-1.656;2023-04-05T18:50:43;19.30;74.70
26964;DHT22;14521;48.148;-1.656;2023-04-05T18:54:05;19.30;76.10
26964;DHT22;14521;48.148;-1.656;2023-04-05T18:57:27;19.40;77.10
26964;DHT22;14521;48.148;-1.656;2023-04-05T19:00:50;19.40;77.30
26964;DHT22;14521;48.148;-1.656;2023-04-05T19:04:12;19.50;76.20
26964;DHT22;14521;48.148;-1.656;2023-04-05T19:07:37;19.50;76.20
26964;DHT22;14521;48.148;-1.656;2023-04-05T19:10:59;19.60;76.50
26964;DHT22;14521;48.148;-1.656;2023-04-05T19:14:22;19.60;76.40
26964;DHT22;14521;48.148;-1.656;2023-04-05T19:17:44;19.60;75.80
26964;DHT22;14521;48.148;-1.656;2023-04-05T19:21:07;19.60;77.30
26964;DHT22;14521;48.148;-1.656;2023-04-05T19:24:29;19.60;76.30
26964;DHT22;14521;48.148;-1.656;2023-04-05T19:27:52;19.70;76.50
26964;DHT22;14521;48.148;-1.656;2023-04-05T19:31:15;19.70;77.00
26964;DHT22;14521;48.148;-1.656;2023-04-05T19:34:38;19.70;76.50
26964;DHT22;14521;48.148;-1.656;2023-04-05T19:38:02;19.70;77.90
26964;DHT22;14521;48.148;-1.656;2023-04-05T19:41:25;19.70;77.60
26964;DHT22;14521;48.148;-1.656;2023-04-05T19:44:52;19.70;77.00
26964;DHT22;14521;48.148;-1.656;2023-04-05T19:48:43;19.70;78.60
26964;DHT22;14521;48.148;-1.656;2023-04-05T19:52:32;19.70;76.60
26964;DHT22;14521;48.148;-1.656;2023-04-05T19:55:54;19.70;77.80
26964;DHT22;14521;48.148;-1.656;2023-04-05T19:59:28;19.70;77.40
26964;DHT22;14521;48.148;-1.656;2023-04-05T20:02:54;19.70;77.10
26964;DHT22;14521;48.148;-1.656;2023-04-05T20:06:16;19.60;76.90
26964;DHT22;14521;48.148;-1.656;2023-04-05T20:09:39;19.60;77.30
26964;DHT22;14521;48.148;-1.656;2023-04-05T20:13:02;19.70;76.90
26964;DHT22;14521;48.148;-1.656;2023-04-05T20:16:28;19.60;75.80
26964;DHT22;14521;48.148;-1.656;2023-04-05T20:19:56;19.60;78.00
26964;DHT22;14521;48.148;-1.656;2023-04-05T20:23:21;19.60;78.00
26964;DHT22;14521;48.148;-1.656;2023-04-05T20:26:44;19.60;76.90
26964;DHT22;14521;48.148;-1.656;2023-04-05T20:30:08;19.60;77.90
26964;DHT22;14521;48.148;-1.656;2023-04-05T20:34:27;19.60;77.90
26964;DHT22;14521;48.148;-1.656;2023-04-05T20:37:30;19.60;78.70
26964;DHT22;14521;48.148;-1.656;2023-04-05T20:40:52;19.60;78.70
26964;DHT22;14521;48.148;-1.656;2023-04-05T20:44:14;19.60;78.60
26964;DHT22;14521;48.148;-1.656;2023-04-05T20:47:37;19.60;78.80
26964;DHT22;14521;48.148;-1.656;2023-04-05T20:51:00;19.60;78.50
26964;DHT22;14521;48.148;-1.656;2023-04-05T20:54:23;19.50;79.30
26964;DHT22;14521;48.148;-1.656;2023-04-05T20:57:45;19.50;78.90
26964;DHT22;14521;48.148;-1.656;2023-04-05T21:01:09;19.50;78.90
26964;DHT22;14521;48.148;-1.656;2023-04-05T21:04:31;19.50;79.00
26964;DHT22;14521;48.148;-1.656;2023-04-05T21:07:55;19.50;78.90
26964;DHT22;14521;48.148;-1.656;2023-04-05T21:11:18;19.50;78.70
26964;DHT22;14521;48.148;-1.656;2023-04-05T21:14:40;19.50;79.00
26964;DHT22;14521;48.148;-1.656;2023-04-05T21:18:03;19.50;78.90
26964;DHT22;14521;48.148;-1.656;2023-04-05T21:21:27;19.60;78.90
26964;DHT22;14521;48.148;-1.656;2023-04-05T21:24:49;19.50;79.50
26964;DHT22;14521;48.148;-1.656;2023-04-05T21:28:12;19.50;80.70
26964;DHT22;14521;48.148;-1.656;2023-04-05T21:31:35;19.50;81.00
26964;DHT22;14521;48.148;-1.656;2023-04-05T21:34:57;19.50;80.50
26964;DHT22;14521;48.148;-1.656;2023-04-05T21:38:19;19.60;78.90